TimeEST,TemperatureF,Dew PointF,Humidity,Sea Level PressureIn,VisibilityMPH,Wind Direction,Wind SpeedMPH,Gust SpeedMPH,PrecipitationIn,Events,Conditions,WindDirDegrees,DateUTC
12:15 AM,42.8,32.0,66,30.02,10.0,WNW,10.4,-,N/A,,Clear,290,2012-12-30 05:15:00
12:35 AM,42.8,32.0,66,30.03,10.0,WNW,8.1,-,N/A,,Clear,290,2012-12-30 05:35:00
8:35 AM,33.8,32.0,93,30.31,10.0,West,3.5,-,N/A,,Clear,260,2012-12-30 13:35:00
8:55 AM,35.6,30.2,81,30.33,10.0,West,4.6,-,N/A,,Clear,260,2012-12-30 13:55:00
9:15 AM,37.4,30.2,75,30.35,10.0,West,5.8,-,N/A,,Clear,270,2012-12-30 14:15:00
9:35 AM,37.4,28.4,70,30.36,10.0,West,4.6,-,N/A,,Clear,280,2012-12-30 14:35:00
9:55 AM,41.0,28.4,61,30.36,10.0,West,6.9,-,N/A,,Clear,280,2012-12-30 14:55:00
10:15 AM,41.0,28.4,61,30.37,10.0,WNW,5.8,-,N/A,,Clear,290,2012-12-30 15:15:00
10:35 AM,42.8,28.4,57,30.37,10.0,WNW,6.9,-,N/A,,Clear,300,2012-12-30 15:35:00
10:55 AM,42.8,26.6,53,30.38,10.0,NW,10.4,-,N/A,,Clear,320,2012-12-30 15:55:00
11:15 AM,44.6,26.6,49,30.37,10.0,NW,11.5,20.7,N/A,,Clear,310,2012-12-30 16:15:00
11:35 AM,44.6,26.6,49,30.37,10.0,NW,9.2,-,N/A,,Clear,320,2012-12-30 16:35:00
11:55 AM,44.6,24.8,46,30.37,10.0,NW,11.5,16.1,N/A,,Clear,320,2012-12-30 16:55:00
12:15 PM,46.4,26.6,46,30.35,10.0,NW,10.4,-,N/A,,Clear,320,2012-12-30 17:15:00
12:35 PM,46.4,24.8,43,30.35,10.0,NW,12.7,-,N/A,,Clear,310,2012-12-30 17:35:00
12:55 PM,46.4,24.8,43,30.35,10.0,NW,10.4,17.3,N/A,,Clear,310,2012-12-30 17:55:00
1:15 PM,46.4,24.8,43,30.35,10.0,NNW,9.2,-,N/A,,Clear,330,2012-12-30 18:15:00
1:35 PM,46.4,24.8,43,30.34,10.0,WNW,9.2,16.1,N/A,,Clear,290,2012-12-30 18:35:00
1:55 PM,48.2,23.0,37,30.34,10.0,WNW,10.4,-,N/A,,Clear,290,2012-12-30 18:55:00
2:15 PM,48.2,24.8,40,30.34,10.0,WNW,9.2,-,N/A,,Clear,300,2012-12-30 19:15:00
2:35 PM,48.2,23.0,37,30.34,10.0,NW,11.5,-,N/A,,Clear,320,2012-12-30 19:35:00
2:55 PM,50.0,24.8,37,30.34,10.0,NNW,9.2,-,N/A,,Clear,330,2012-12-30 19:55:00
3:15 PM,50.0,23.0,35,30.34,10.0,WNW,10.4,-,N/A,,Clear,290,2012-12-30 20:15:00
3:35 PM,50.0,23.0,35,30.35,10.0,WNW,8.1,-,N/A,,Clear,290,2012-12-30 20:35:00
3:55 PM,50.0,23.0,35,30.35,10.0,NW,6.9,-,N/A,,Clear,310,2012-12-30 20:55:00
4:15 PM,50.0,24.8,37,30.35,10.0,West,6.9,-,N/A,,Clear,280,2012-12-30 21:15:00
4:35 PM,48.2,23.0,37,30.36,10.0,NW,5.8,-,N/A,,Clear,310,2012-12-30 21:35:00
4:55 PM,46.4,24.8,43,30.36,10.0,NW,4.6,-,N/A,,Clear,310,2012-12-30 21:55:00
5:15 PM,46.4,28.4,50,30.36,10.0,West,3.5,-,N/A,,Clear,280,2012-12-30 22:15:00
5:35 PM,42.8,28.4,57,30.36,10.0,Calm,Calm,-,N/A,,Clear,0,2012-12-30 22:35:00
5:55 PM,41.0,32.0,70,30.36,10.0,Calm,Calm,-,N/A,,Clear,0,2012-12-30 22:55:00
6:15 PM,39.2,32.0,75,30.37,10.0,Calm,Calm,-,N/A,,Clear,0,2012-12-30 23:15:00
6:35 PM,37.4,33.8,87,30.38,10.0,Calm,Calm,-,N/A,,Clear,0,2012-12-30 23:35:00
6:55 PM,37.4,32.0,81,30.37,10.0,Calm,Calm,-,N/A,,Clear,0,2012-12-30 23:55:00
7:15 PM,35.6,32.0,87,30.39,10.0,Calm,Calm,-,N/A,,Clear,0,2012-12-31 00:15:00
7:35 PM,33.8,32.0,93,30.40,10.0,Calm,Calm,-,N/A,,Clear,0,2012-12-31 00:35:00
7:55 PM,33.8,32.0,93,30.40,10.0,Calm,Calm,-,N/A,,Clear,0,2012-12-31 00:55:00
8:15 PM,33.8,32.0,93,30.40,10.0,Calm,Calm,-,N/A,,Clear,0,2012-12-31 01:15:00
8:35 PM,33.8,32.0,93,30.41,10.0,Calm,Calm,-,N/A,,Clear,0,2012-12-31 01:35:00
8:55 PM,33.8,32.0,93,30.41,10.0,Calm,Calm,-,N/A,,Clear,0,2012-12-31 01:55:00
9:15 PM,33.8,32.0,93,30.42,10.0,Calm,Calm,-,N/A,,Clear,0,2012-12-31 02:15:00
9:35 PM,33.8,32.0,93,30.41,10.0,Calm,Calm,-,N/A,,Clear,0,2012-12-31 02:35:00
9:55 PM,32.0,32.0,100,30.41,10.0,Calm,Calm,-,N/A,,Clear,0,2012-12-31 02:55:00
10:15 PM,32.0,32.0,100,30.41,10.0,Calm,Calm,-,N/A,,Clear,0,2012-12-31 03:15:00
10:35 PM,32.0,32.0,100,30.42,10.0,Calm,Calm,-,N/A,,Clear,0,2012-12-31 03:35:00
10:55 PM,32.0,32.0,100,30.40,10.0,Calm,Calm,-,N/A,,Clear,0,2012-12-31 03:55:00
11:15 PM,32.0,32.0,100,30.41,7.0,Calm,Calm,-,N/A,,Clear,0,2012-12-31 04:15:00
11:35 PM,32.0,32.0,100,30.40,7.0,Calm,Calm,-,N/A,,Clear,0,2012-12-31 04:35:00
11:55 PM,32.0,32.0,100,30.39,10.0,Calm,Calm,-,N/A,,Clear,0,2012-12-31 04:55:00